Aviation Digital Data Service (ADDS)

Output produced by METARs form (2250 UTC 23 May 2022)
found at http://www.aviationweather.gov/metar/data/
 
OTBD 232230Z 30010KT 270V350 CAVOK 31/17 Q1000 TEMPO 0800 DS
TAF OTBD 231706Z 2318/2424 36005KT 7000 NSC 
     BECMG 2323/2401 34015G25KT 4000 BLDU 
     TEMPO 2321/2412 2500 DU 
     PROB40 
     TEMPO 2321/2405 0700 DS
       
OTBH 232159Z AUTO 33012G26KT 9999 CLR 29/16 A2953 RMK AO2 WSHFT 48 SLP000 FZRANO $
TAF AMD OTBH 231930Z 2319/2422 04009KT 8000 DU SKC QNH2950INS 
     BECMG 2321/2322 35012G25KT 2600 DU SKC QNH2951INS 
     TEMPO 2322/2405 0600 DS 
     BECMG 2405/2406 35020G25KT 3000 BLDU SKC QNH2967INS 
     TEMPO 2407/2413 34020G30KT 0800 DS TX38/2410Z TN25/2321Z